Time,TemperatureF,DewpointF,PressureIn,WindDirection,WindDirectionDegrees,WindSpeedMPH,WindSpeedGustMPH,Humidity,HourlyPrecipIn,Conditions,Clouds,dailyrainin,SoftwareType,DateUTC
2013-07-02 00:01:00,87.1,66.8,29.78,WNW,288,0.0,0.0,51,0.00,,---,0.00,VWS V14.01,2013-07-02 07:01:00,
2013-07-02 00:06:00,86.9,67.7,29.79,WNW,289,0.0,0.0,53,0.00,,---,0.00,VWS V14.01,2013-07-02 07:06:00,
2013-07-02 00:11:00,86.7,68.1,29.79,WNW,289,0.0,0.0,54,0.00,,---,0.00,VWS V14.01,2013-07-02 07:11:00,
2013-07-02 00:16:00,86.6,67.4,29.78,WNW,288,0.0,0.0,53,0.00,,---,0.00,VWS V14.01,2013-07-02 07:16:00,
2013-07-02 00:21:00,86.3,67.2,29.78,WNW,289,0.0,0.0,53,0.00,,---,0.00,VWS V14.01,2013-07-02 07:21:00,
2013-07-02 00:26:00,86.2,67.6,29.78,WNW,289,0.0,0.0,54,0.00,,---,0.00,VWS V14.01,2013-07-02 07:26:00,
2013-07-02 00:31:00,86.1,66.4,29.78,WNW,289,0.0,0.0,52,0.00,,---,0.00,VWS V14.01,2013-07-02 07:31:00,
2013-07-02 00:36:00,85.9,66.8,29.78,WNW,289,0.0,0.0,53,0.00,,---,0.00,VWS V14.01,2013-07-02 07:36:00,
2013-07-02 00:41:00,85.8,67.8,29.78,WNW,289,0.0,0.0,55,0.00,,---,0.00,VWS V14.01,2013-07-02 07:41:00,
2013-07-02 00:46:00,85.7,67.2,29.78,WNW,289,0.0,0.0,54,0.00,,---,0.00,VWS V14.01,2013-07-02 07:46:00,
2013-07-02 00:51:00,85.6,67.1,29.78,WNW,289,0.0,0.0,54,0.00,,---,0.00,VWS V14.01,2013-07-02 07:51:00,
2013-07-02 00:56:00,85.4,67.4,29.78,WNW,289,0.0,0.0,55,0.00,,---,0.00,VWS V14.01,2013-07-02 07:56:00,
2013-07-02 01:01:00,85.3,67.8,29.78,WNW,289,0.0,0.0,56,0.00,,---,0.00,VWS V14.01,2013-07-02 08:01:00,
2013-07-02 01:06:00,85.1,68.7,29.78,WNW,288,0.0,0.0,58,0.00,,---,0.00,VWS V14.01,2013-07-02 08:06:00,
2013-07-02 01:11:00,84.8,67.4,29.79,WNW,289,0.0,0.0,56,0.00,,---,0.00,VWS V14.01,2013-07-02 08:11:00,
2013-07-02 01:16:00,84.6,66.7,29.79,WNW,284,2.0,3.0,55,0.00,,---,0.00,VWS V14.01,2013-07-02 08:16:00,
2013-07-02 01:21:00,84.5,65.5,29.79,West,278,1.0,4.0,53,0.00,,---,0.00,VWS V14.01,2013-07-02 08:21:00,
2013-07-02 01:26:00,84.4,65.4,29.78,West,278,0.0,0.0,53,0.00,,---,0.00,VWS V14.01,2013-07-02 08:26:00,
2013-07-02 01:31:00,84.4,64.3,29.79,West,278,2.0,2.0,51,0.00,,---,0.00,VWS V14.01,2013-07-02 08:31:00,
2013-07-02 01:36:00,84.4,64.3,29.78,West,278,0.0,0.0,51,0.00,,---,0.00,VWS V14.01,2013-07-02 08:36:00,
2013-07-02 01:41:00,84.4,64.3,29.78,West,278,0.0,0.0,51,0.00,,---,0.00,VWS V14.01,2013-07-02 08:41:00,
2013-07-02 01:46:00,84.5,64.4,29.78,West,278,0.0,0.0,51,0.00,,---,0.00,VWS V14.01,2013-07-02 08:46:00,
2013-07-02 01:51:00,84.5,65.5,29.78,West,278,0.0,0.0,53,0.00,,---,0.00,VWS V14.01,2013-07-02 08:51:00,
2013-07-02 01:56:00,84.4,64.9,29.77,West,278,0.0,0.0,52,0.00,,---,0.00,VWS V14.01,2013-07-02 08:56:00,
2013-07-02 02:01:00,84.4,64.3,29.77,West,278,0.0,1.0,51,0.00,,---,0.00,VWS V14.01,2013-07-02 09:01:00,
2013-07-02 02:06:00,84.3,65.3,29.77,West,278,4.0,4.0,53,0.00,,---,0.00,VWS V14.01,2013-07-02 09:06:00,
2013-07-02 02:11:00,84.3,65.3,29.76,WNW,282,3.0,3.0,53,0.00,,---,0.00,VWS V14.01,2013-07-02 09:11:00,
2013-07-02 02:16:00,84.3,64.8,29.76,WNW,284,0.0,3.0,52,0.00,,---,0.00,VWS V14.01,2013-07-02 09:16:00,
2013-07-02 02:21:00,84.3,65.3,29.76,WNW,284,0.0,0.0,53,0.00,,---,0.00,VWS V14.01,2013-07-02 09:21:00,
2013-07-02 02:26:00,84.2,65.2,29.77,WNW,284,0.0,0.0,53,0.00,,---,0.00,VWS V14.01,2013-07-02 09:26:00,
2013-07-02 02:31:00,84.0,65.6,29.76,WNW,284,0.0,1.0,54,0.00,,---,0.00,VWS V14.01,2013-07-02 09:31:00,
2013-07-02 02:36:00,83.8,65.4,29.77,WNW,284,0.0,0.0,54,0.00,,---,0.00,VWS V14.01,2013-07-02 09:36:00,
2013-07-02 02:41:00,83.5,65.7,29.76,WNW,284,0.0,0.0,55,0.00,,---,0.00,VWS V14.01,2013-07-02 09:41:00,
2013-07-02 02:46:00,83.2,65.4,29.76,WNW,284,0.0,0.0,55,0.00,,---,0.00,VWS V14.01,2013-07-02 09:46:00,
2013-07-02 02:51:00,83.0,65.7,29.77,WNW,284,0.0,0.0,56,0.00,,---,0.00,VWS V14.01,2013-07-02 09:51:00,
2013-07-02 02:56:00,82.6,66.3,29.77,WNW,284,0.0,0.0,58,0.00,,---,0.00,VWS V14.01,2013-07-02 09:56:00,
2013-07-02 03:01:00,82.2,66.0,29.77,WNW,284,0.0,0.0,58,0.00,,---,0.00,VWS V14.01,2013-07-02 10:01:00,
2013-07-02 03:05:00,81.9,65.7,29.77,WNW,284,0.0,0.0,58,0.00,,---,0.00,VWS V14.01,2013-07-02 10:05:00,
2013-07-02 03:10:00,81.5,65.3,29.76,WNW,284,0.0,0.0,58,0.00,,---,0.00,VWS V14.01,2013-07-02 10:10:00,
2013-07-02 03:15:00,81.2,65.5,29.76,WNW,284,0.0,0.0,59,0.00,,---,0.00,VWS V14.01,2013-07-02 10:15:00,
2013-07-02 03:20:00,81.0,65.3,29.76,WNW,284,0.0,0.0,59,0.00,,---,0.00,VWS V14.01,2013-07-02 10:20:00,
2013-07-02 03:25:00,80.8,65.2,29.76,WNW,284,0.0,0.0,59,0.00,,---,0.00,VWS V14.01,2013-07-02 10:25:00,
2013-07-02 03:30:00,80.5,65.8,29.76,WNW,284,0.0,0.0,61,0.00,,---,0.00,VWS V14.01,2013-07-02 10:30:00,
2013-07-02 03:35:00,80.3,64.7,29.76,WNW,284,0.0,0.0,59,0.00,,---,0.00,VWS V14.01,2013-07-02 10:35:00,
2013-07-02 03:40:00,80.2,65.1,29.77,WNW,284,0.0,0.0,60,0.00,,---,0.00,VWS V14.01,2013-07-02 10:40:00,
2013-07-02 03:45:00,80.0,64.4,29.77,WNW,284,0.0,0.0,59,0.00,,---,0.00,VWS V14.01,2013-07-02 10:45:00,
2013-07-02 03:50:00,79.9,64.8,29.77,WNW,284,0.0,0.0,60,0.00,,---,0.00,VWS V14.01,2013-07-02 10:50:00,
2013-07-02 03:55:00,79.7,64.6,29.76,WNW,284,0.0,0.0,60,0.00,,---,0.00,VWS V14.01,2013-07-02 10:55:00,
2013-07-02 04:00:00,79.6,64.5,29.76,WNW,284,0.0,0.0,60,0.00,,---,0.00,VWS V14.01,2013-07-02 11:00:00,
2013-07-02 04:05:00,79.4,64.8,29.76,WNW,284,0.0,0.0,61,0.00,,---,0.00,VWS V14.01,2013-07-02 11:05:00,
2013-07-02 04:10:00,79.3,65.6,29.76,WNW,284,0.0,0.0,63,0.00,,---,0.00,VWS V14.01,2013-07-02 11:10:00,
2013-07-02 04:15:00,79.1,65.0,29.76,WNW,284,0.0,0.0,62,0.00,,---,0.00,VWS V14.01,2013-07-02 11:15:00,
2013-07-02 04:20:00,78.9,65.2,29.76,WNW,284,0.0,0.0,63,0.00,,---,0.00,VWS V14.01,2013-07-02 11:20:00,
2013-07-02 04:25:00,78.7,65.1,29.76,WNW,284,0.0,0.0,63,0.00,,---,0.00,VWS V14.01,2013-07-02 11:25:00,
2013-07-02 04:30:00,78.7,65.5,29.76,WNW,284,0.0,0.0,64,0.00,,---,0.00,VWS V14.01,2013-07-02 11:30:00,
2013-07-02 04:35:00,78.5,65.3,29.76,WNW,284,0.0,0.0,64,0.00,,---,0.00,VWS V14.01,2013-07-02 11:35:00,
2013-07-02 04:40:00,78.3,65.6,29.76,WNW,284,0.0,0.0,65,0.00,,---,0.00,VWS V14.01,2013-07-02 11:40:00,
2013-07-02 04:45:00,78.1,65.4,29.76,WNW,284,0.0,0.0,65,0.00,,---,0.00,VWS V14.01,2013-07-02 11:45:00,
2013-07-02 04:51:00,78.0,65.3,29.76,WNW,284,0.0,0.0,65,0.00,,---,0.00,VWS V14.01,2013-07-02 11:51:00,
2013-07-02 04:56:00,77.8,65.5,29.76,WNW,284,0.0,0.0,66,0.00,,---,0.00,VWS V14.01,2013-07-02 11:56:00,
2013-07-02 05:01:00,77.6,64.9,29.76,WNW,284,0.0,0.0,65,0.00,,---,0.00,VWS V14.01,2013-07-02 12:01:00,
2013-07-02 05:06:00,77.4,64.7,29.76,WNW,284,0.0,0.0,65,0.00,,---,0.00,VWS V14.01,2013-07-02 12:06:00,
2013-07-02 05:11:00,77.3,64.6,29.76,WNW,284,0.0,0.0,65,0.00,,---,0.00,VWS V14.01,2013-07-02 12:11:00,
2013-07-02 05:16:00,77.2,64.5,29.76,WNW,284,0.0,0.0,65,0.00,,---,0.00,VWS V14.01,2013-07-02 12:16:00,
2013-07-02 05:21:00,77.1,64.4,29.77,WNW,284,0.0,0.0,65,0.00,,---,0.00,VWS V14.01,2013-07-02 12:21:00,
2013-07-02 05:26:00,77.0,64.3,29.77,WNW,284,0.0,0.0,65,0.00,,---,0.00,VWS V14.01,2013-07-02 12:26:00,
2013-07-02 05:31:00,76.9,64.2,29.77,WNW,284,0.0,0.0,65,0.00,,---,0.00,VWS V14.01,2013-07-02 12:31:00,
2013-07-02 05:36:00,76.9,65.1,29.77,WNW,284,0.0,0.0,67,0.00,,---,0.00,VWS V14.01,2013-07-02 12:36:00,
2013-07-02 05:41:00,76.8,65.0,29.77,WNW,284,0.0,0.0,67,0.00,,---,0.00,VWS V14.01,2013-07-02 12:41:00,
2013-07-02 05:46:00,76.7,65.3,29.77,WNW,284,0.0,0.0,68,0.00,,---,0.00,VWS V14.01,2013-07-02 12:46:00,
2013-07-02 05:50:00,76.7,64.9,29.77,WNW,284,0.0,0.0,67,0.00,,---,0.00,VWS V14.01,2013-07-02 12:50:00,
2013-07-02 05:55:00,76.6,64.8,29.77,WNW,284,0.0,0.0,67,0.00,,---,0.00,VWS V14.01,2013-07-02 12:55:00,
2013-07-02 06:00:00,76.6,64.8,29.77,WNW,284,0.0,0.0,67,0.00,,---,0.00,VWS V14.01,2013-07-02 13:00:00,
2013-07-02 06:05:00,76.6,64.8,29.77,WNW,284,0.0,0.0,67,0.00,,---,0.00,VWS V14.01,2013-07-02 13:05:00,
2013-07-02 06:10:00,76.5,65.2,29.77,WNW,284,0.0,0.0,68,0.00,,---,0.00,VWS V14.01,2013-07-02 13:10:00,
2013-07-02 06:15:00,76.5,65.2,29.77,WNW,284,0.0,0.0,68,0.00,,---,0.00,VWS V14.01,2013-07-02 13:15:00,
2013-07-02 06:20:00,76.6,64.8,29.77,WNW,284,2.0,2.0,67,0.00,,---,0.00,VWS V14.01,2013-07-02 13:20:00,
2013-07-02 06:25:00,76.7,64.5,29.78,West,279,3.0,4.0,66,0.00,,---,0.00,VWS V14.01,2013-07-02 13:25:00,
2013-07-02 06:30:00,77.0,64.8,29.78,West,275,1.0,3.0,66,0.00,,---,0.00,VWS V14.01,2013-07-02 13:30:00,
2013-07-02 06:35:00,77.2,64.5,29.78,West,275,0.0,2.0,65,0.00,,---,0.00,VWS V14.01,2013-07-02 13:35:00,
2013-07-02 06:40:00,77.3,65.1,29.78,West,275,0.0,3.0,66,0.00,,---,0.00,VWS V14.01,2013-07-02 13:40:00,
2013-07-02 06:45:00,77.3,64.6,29.78,West,271,1.0,2.0,65,0.00,,---,0.00,VWS V14.01,2013-07-02 13:45:00,
2013-07-02 06:50:00,77.3,64.2,29.78,WSW,243,4.0,5.0,64,0.00,,---,0.00,VWS V14.01,2013-07-02 13:50:00,
2013-07-02 06:55:00,77.3,64.2,29.78,SW,235,3.0,5.0,64,0.00,,---,0.00,VWS V14.01,2013-07-02 13:55:00,
2013-07-02 07:00:00,77.3,64.2,29.78,SW,235,0.0,0.0,64,0.00,,---,0.00,VWS V14.01,2013-07-02 14:00:00,
2013-07-02 07:05:00,77.3,64.2,29.78,SW,235,0.0,0.0,64,0.00,,---,0.00,VWS V14.01,2013-07-02 14:05:00,
2013-07-02 07:11:00,77.3,64.2,29.78,SW,235,0.0,0.0,64,0.00,,---,0.00,VWS V14.01,2013-07-02 14:11:00,
2013-07-02 07:16:00,77.3,64.2,29.78,SW,235,0.0,0.0,64,0.00,,---,0.00,VWS V14.01,2013-07-02 14:16:00,
2013-07-02 07:20:00,77.3,64.2,29.79,SW,235,3.0,3.0,64,0.00,,---,0.00,VWS V14.01,2013-07-02 14:20:00,
2013-07-02 07:25:00,77.4,64.3,29.79,SW,234,3.0,3.0,64,0.00,,---,0.00,VWS V14.01,2013-07-02 14:25:00,
2013-07-02 07:30:00,77.4,64.3,29.79,SW,234,0.0,0.0,64,0.00,,---,0.00,VWS V14.01,2013-07-02 14:30:00,
2013-07-02 07:35:00,77.5,64.4,29.80,SW,234,0.0,4.0,64,0.00,,---,0.00,VWS V14.01,2013-07-02 14:35:00,
2013-07-02 07:40:00,77.6,64.5,29.80,SW,229,2.0,3.0,64,0.00,,---,0.00,VWS V14.01,2013-07-02 14:40:00,
2013-07-02 07:45:00,77.8,64.2,29.80,SW,215,2.0,4.0,63,0.00,,---,0.00,VWS V14.01,2013-07-02 14:45:00,
2013-07-02 07:50:00,77.9,64.8,29.80,SW,215,0.0,0.0,64,0.00,,---,0.00,VWS V14.01,2013-07-02 14:50:00,
2013-07-02 07:55:00,78.3,64.7,29.80,SSW,205,2.0,4.0,63,0.00,,---,0.00,VWS V14.01,2013-07-02 14:55:00,
2013-07-02 08:00:00,78.7,64.6,29.80,South,170,1.0,5.0,62,0.00,,---,0.00,VWS V14.01,2013-07-02 15:00:00,
2013-07-02 08:05:00,78.8,64.7,29.80,SSE,163,2.0,4.0,62,0.00,,---,0.00,VWS V14.01,2013-07-02 15:05:00,
2013-07-02 08:10:00,79.2,64.6,29.81,SSE,159,4.0,4.0,61,0.00,,---,0.00,VWS V14.01,2013-07-02 15:10:00,
2013-07-02 08:15:00,79.6,65.0,29.81,SE,143,4.0,4.0,61,0.00,,---,0.00,VWS V14.01,2013-07-02 15:15:00,
2013-07-02 08:20:00,80.0,64.9,29.81,SE,140,1.0,1.0,60,0.00,,---,0.00,VWS V14.01,2013-07-02 15:20:00,
2013-07-02 08:25:00,80.6,65.4,29.81,SE,132,5.0,5.0,60,0.00,,---,0.00,VWS V14.01,2013-07-02 15:25:00,
2013-07-02 08:30:00,81.1,65.4,29.81,SE,130,1.0,3.0,59,0.00,,---,0.00,VWS V14.01,2013-07-02 15:30:00,
2013-07-02 08:35:00,81.5,65.8,29.81,SE,130,4.0,4.0,59,0.00,,---,0.00,VWS V14.01,2013-07-02 15:35:00,
2013-07-02 08:40:00,81.9,65.2,29.81,SE,125,3.0,5.0,57,0.00,,---,0.00,VWS V14.01,2013-07-02 15:40:00,
2013-07-02 08:45:00,82.2,65.5,29.82,ESE,123,6.0,7.0,57,0.00,,---,0.00,VWS V14.01,2013-07-02 15:45:00,
2013-07-02 08:50:00,82.6,65.3,29.82,ESE,123,2.0,2.0,56,0.00,,---,0.00,VWS V14.01,2013-07-02 15:50:00,
2013-07-02 08:55:00,82.9,65.1,29.82,ESE,123,2.0,5.0,55,0.00,,---,0.00,VWS V14.01,2013-07-02 15:55:00,
2013-07-02 09:00:00,83.2,64.8,29.82,SE,133,5.0,5.0,54,0.00,,---,0.00,VWS V14.01,2013-07-02 16:00:00,
2013-07-02 09:05:00,83.6,65.2,29.82,SE,144,0.0,2.0,54,0.00,,---,0.00,VWS V14.01,2013-07-02 16:05:00,
2013-07-02 09:10:00,84.0,65.1,29.82,SSE,159,0.0,1.0,53,0.00,,---,0.00,VWS V14.01,2013-07-02 16:10:00,
2013-07-02 09:15:00,84.6,65.1,29.82,South,179,2.0,7.0,52,0.00,,---,0.00,VWS V14.01,2013-07-02 16:15:00,
2013-07-02 09:20:00,85.3,65.7,29.82,South,175,0.0,0.0,52,0.00,,---,0.00,VWS V14.01,2013-07-02 16:20:00,
2013-07-02 09:25:00,86.0,65.2,29.81,South,172,4.0,5.0,50,0.00,,---,0.00,VWS V14.01,2013-07-02 16:25:00,
2013-07-02 09:30:00,86.6,65.2,29.81,South,176,0.0,0.0,49,0.00,,---,0.00,VWS V14.01,2013-07-02 16:30:00,
2013-07-02 09:35:00,87.4,64.7,29.81,SSE,155,1.0,5.0,47,0.00,,---,0.00,VWS V14.01,2013-07-02 16:35:00,
2013-07-02 09:40:00,88.1,66.0,29.82,SE,140,8.0,8.0,48,0.00,,---,0.00,VWS V14.01,2013-07-02 16:40:00,
2013-07-02 09:45:00,88.7,64.7,29.82,SE,139,1.0,6.0,45,0.00,,---,0.00,VWS V14.01,2013-07-02 16:45:00,
2013-07-02 09:50:00,88.9,64.8,29.82,SE,142,4.0,5.0,45,0.00,,---,0.00,VWS V14.01,2013-07-02 16:50:00,
2013-07-02 09:55:00,89.2,64.5,29.82,SSE,148,4.0,6.0,44,0.00,,---,0.00,VWS V14.01,2013-07-02 16:55:00,
2013-07-02 10:00:00,89.4,65.3,29.82,SE,142,0.0,0.0,45,0.00,,---,0.00,VWS V14.01,2013-07-02 17:00:00,
2013-07-02 10:05:00,89.8,65.0,29.82,SE,141,2.0,4.0,44,0.00,,---,0.00,VWS V14.01,2013-07-02 17:05:00,
2013-07-02 10:10:00,90.2,64.7,29.82,SE,142,3.0,3.0,43,0.00,,---,0.00,VWS V14.01,2013-07-02 17:10:00,
2013-07-02 10:15:00,90.4,64.9,29.82,SSE,151,0.0,0.0,43,0.00,,---,0.00,VWS V14.01,2013-07-02 17:15:00,
2013-07-02 10:20:00,90.6,64.4,29.82,SSE,148,10.0,10.0,42,0.00,,---,0.00,VWS V14.01,2013-07-02 17:20:00,
2013-07-02 10:25:00,91.0,64.1,29.82,SSE,151,1.0,9.0,41,0.00,,---,0.00,VWS V14.01,2013-07-02 17:25:00,
2013-07-02 10:30:00,91.3,65.0,29.82,SE,144,2.0,2.0,42,0.00,,---,0.00,VWS V14.01,2013-07-02 17:30:00,
2013-07-02 10:35:00,91.8,65.5,29.82,South,172,5.0,9.0,42,0.00,,---,0.00,VWS V14.01,2013-07-02 17:35:00,
2013-07-02 10:40:00,92.1,65.0,29.82,SSE,157,1.0,3.0,41,0.00,,---,0.00,VWS V14.01,2013-07-02 17:40:00,
2013-07-02 10:45:00,92.3,64.5,29.82,SSW,213,3.0,3.0,40,0.00,,---,0.00,VWS V14.01,2013-07-02 17:45:00,
2013-07-02 10:50:00,92.7,65.6,29.82,South,175,0.0,3.0,41,0.00,,---,0.00,VWS V14.01,2013-07-02 17:50:00,
2013-07-02 10:55:00,93.2,65.3,29.83,SSE,167,5.0,5.0,40,0.00,,---,0.00,VWS V14.01,2013-07-02 17:55:00,
2013-07-02 11:00:00,93.4,64.8,29.83,SSW,196,5.0,7.0,39,0.00,,---,0.00,VWS V14.01,2013-07-02 18:00:00,
2013-07-02 11:05:00,93.5,63.3,29.83,SSW,196,4.0,7.0,37,0.00,,---,0.00,VWS V14.01,2013-07-02 18:05:00,
2013-07-02 11:10:00,93.7,64.3,29.83,SSE,155,0.0,7.0,38,0.00,,---,0.00,VWS V14.01,2013-07-02 18:10:00,
2013-07-02 11:15:00,94.0,64.6,29.83,SSE,160,3.0,3.0,38,0.00,,---,0.00,VWS V14.01,2013-07-02 18:15:00,
2013-07-02 11:20:00,94.4,64.1,29.83,South,183,5.0,5.0,37,0.00,,---,0.00,VWS V14.01,2013-07-02 18:20:00,
2013-07-02 11:25:00,94.3,64.1,29.83,South,183,0.0,0.0,37,0.00,,---,0.00,VWS V14.01,2013-07-02 18:25:00,
2013-07-02 11:30:00,94.4,64.9,29.83,SSE,153,5.0,10.0,38,0.00,,---,0.00,VWS V14.01,2013-07-02 18:30:00,
2013-07-02 11:35:00,94.4,64.1,29.83,SSW,192,5.0,10.0,37,0.00,,---,0.00,VWS V14.01,2013-07-02 18:35:00,
2013-07-02 11:40:00,94.3,64.1,29.82,South,171,10.0,10.0,37,0.00,,---,0.00,VWS V14.01,2013-07-02 18:40:00,
2013-07-02 11:45:00,94.1,63.9,29.82,SE,128,3.0,9.0,37,0.00,,---,0.00,VWS V14.01,2013-07-02 18:45:00,
2013-07-02 11:50:00,94.2,63.2,29.82,South,170,4.0,4.0,36,0.00,,---,0.00,VWS V14.01,2013-07-02 18:50:00,
2013-07-02 11:55:00,94.2,64.0,29.83,SSW,194,5.0,5.0,37,0.00,,---,0.00,VWS V14.01,2013-07-02 18:55:00,
2013-07-02 12:00:00,94.5,64.2,29.82,SSW,199,2.0,4.0,37,0.00,,---,0.00,VWS V14.01,2013-07-02 19:00:00,
2013-07-02 12:05:00,94.7,65.2,29.82,SW,217,0.0,2.0,38,0.00,,---,0.00,VWS V14.01,2013-07-02 19:05:00,
2013-07-02 12:10:00,95.2,65.6,29.82,SSW,196,6.0,6.0,38,0.00,,---,0.00,VWS V14.01,2013-07-02 19:10:00,
2013-07-02 12:15:00,95.5,65.1,29.82,SSE,162,0.0,3.0,37,0.00,,---,0.00,VWS V14.01,2013-07-02 19:15:00,
2013-07-02 12:20:00,96.1,65.6,29.82,South,169,5.0,5.0,37,0.00,,---,0.00,VWS V14.01,2013-07-02 19:20:00,
2013-07-02 12:25:00,96.5,66.0,29.82,SSE,155,7.0,7.0,37,0.00,,---,0.00,VWS V14.01,2013-07-02 19:25:00,
2013-07-02 12:30:00,96.6,64.5,29.82,SSW,197,7.0,7.0,35,0.00,,---,0.00,VWS V14.01,2013-07-02 19:30:00,
2013-07-02 12:35:00,96.8,63.0,29.82,SSE,159,7.0,7.0,33,0.00,,---,0.00,VWS V14.01,2013-07-02 19:35:00,
2013-07-02 12:40:00,96.8,63.0,29.82,SSE,149,3.0,3.0,33,0.00,,---,0.00,VWS V14.01,2013-07-02 19:40:00,
2013-07-02 12:45:00,97.0,64.0,29.82,South,186,4.0,6.0,34,0.00,,---,0.00,VWS V14.01,2013-07-02 19:45:00,
2013-07-02 12:50:00,97.4,63.5,29.82,SSW,196,6.0,6.0,33,0.00,,---,0.00,VWS V14.01,2013-07-02 19:50:00,
2013-07-02 12:55:00,97.6,63.7,29.82,South,174,4.0,6.0,33,0.00,,---,0.00,VWS V14.01,2013-07-02 19:55:00,
2013-07-02 13:00:00,97.8,63.0,29.82,South,180,7.0,7.0,32,0.00,,---,0.00,VWS V14.01,2013-07-02 20:00:00,
2013-07-02 13:05:00,98.3,64.3,29.82,SE,126,5.0,11.0,33,0.00,,---,0.00,VWS V14.01,2013-07-02 20:05:00,
2013-07-02 13:10:00,98.7,63.8,29.82,South,177,7.0,9.0,32,0.00,,---,0.00,VWS V14.01,2013-07-02 20:10:00,
2013-07-02 13:15:00,98.9,63.9,29.82,South,173,3.0,4.0,32,0.00,,---,0.00,VWS V14.01,2013-07-02 20:15:00,
2013-07-02 13:20:00,99.1,64.1,29.82,SE,138,2.0,2.0,32,0.00,,---,0.00,VWS V14.01,2013-07-02 20:20:00,
2013-07-02 13:25:00,99.4,63.5,29.82,SSE,159,0.0,0.0,31,0.00,,---,0.00,VWS V14.01,2013-07-02 20:25:00,
2013-07-02 13:30:00,99.5,64.4,29.82,South,182,9.0,10.0,32,0.00,,---,0.00,VWS V14.01,2013-07-02 20:30:00,
2013-07-02 13:35:00,99.8,63.8,29.82,South,173,3.0,6.0,31,0.00,,---,0.00,VWS V14.01,2013-07-02 20:35:00,
2013-07-02 13:40:00,99.8,64.7,29.81,SE,132,2.0,5.0,32,0.00,,---,0.00,VWS V14.01,2013-07-02 20:40:00,
2013-07-02 13:45:00,100.0,64.0,29.82,SSW,207,9.0,9.0,31,0.00,,---,0.00,VWS V14.01,2013-07-02 20:45:00,
2013-07-02 13:50:00,100.1,64.1,29.81,SE,142,0.0,2.0,31,0.00,,---,0.00,VWS V14.01,2013-07-02 20:50:00,
2013-07-02 13:55:00,100.4,63.4,29.81,SSW,207,4.0,5.0,30,0.00,,---,0.00,VWS V14.01,2013-07-02 20:55:00,
2013-07-02 14:00:00,100.5,62.5,29.81,SE,144,6.0,6.0,29,0.00,,---,0.00,VWS V14.01,2013-07-02 21:00:00,
2013-07-02 14:05:00,100.6,63.5,29.81,SSE,167,0.0,0.0,30,0.00,,---,0.00,VWS V14.01,2013-07-02 21:05:00,
2013-07-02 14:10:00,100.9,62.8,29.81,SSE,147,4.0,9.0,29,0.00,,---,0.00,VWS V14.01,2013-07-02 21:10:00,
2013-07-02 14:15:00,101.1,64.0,29.80,SSE,153,4.0,4.0,30,0.00,,---,0.00,VWS V14.01,2013-07-02 21:15:00,
2013-07-02 14:20:00,101.2,64.1,29.81,SW,225,4.0,7.0,30,0.00,,---,0.00,VWS V14.01,2013-07-02 21:20:00,
2013-07-02 14:25:00,101.3,64.1,29.80,South,177,0.0,0.0,30,0.00,,---,0.00,VWS V14.01,2013-07-02 21:25:00,
2013-07-02 14:30:00,101.4,62.3,29.81,SE,128,9.0,9.0,28,0.00,,---,0.00,VWS V14.01,2013-07-02 21:30:00,
2013-07-02 14:35:00,101.4,63.3,29.81,South,169,4.0,4.0,29,0.00,,---,0.00,VWS V14.01,2013-07-02 21:35:00,
2013-07-02 14:40:00,101.3,62.2,29.80,SSE,155,2.0,5.0,28,0.00,,---,0.00,VWS V14.01,2013-07-02 21:40:00,
2013-07-02 14:45:00,101.5,63.3,29.80,SSE,161,4.0,5.0,29,0.00,,---,0.00,VWS V14.01,2013-07-02 21:45:00,
2013-07-02 14:50:00,101.8,62.6,29.80,SSE,158,2.0,3.0,28,0.00,,---,0.00,VWS V14.01,2013-07-02 21:50:00,
2013-07-02 14:55:00,101.8,62.6,29.81,SSE,163,4.0,4.0,28,0.00,,---,0.00,VWS V14.01,2013-07-02 21:55:00,
2013-07-02 15:00:00,101.9,63.7,29.80,SE,143,2.0,3.0,29,0.00,,---,0.00,VWS V14.01,2013-07-02 22:00:00,
2013-07-02 15:05:00,102.1,63.9,29.80,SSW,197,3.0,7.0,29,0.00,,---,0.00,VWS V14.01,2013-07-02 22:05:00,
2013-07-02 15:10:00,102.2,62.9,29.80,SE,144,0.0,0.0,28,0.00,,---,0.00,VWS V14.01,2013-07-02 22:10:00,
2013-07-02 15:15:00,102.4,63.1,29.80,SE,141,7.0,7.0,28,0.00,,---,0.00,VWS V14.01,2013-07-02 22:15:00,
2013-07-02 15:20:00,102.7,63.4,29.80,South,171,3.0,4.0,28,0.00,,---,0.00,VWS V14.01,2013-07-02 22:20:00,
2013-07-02 15:25:00,102.9,63.5,29.80,SSE,149,2.0,3.0,28,0.00,,---,0.00,VWS V14.01,2013-07-02 22:25:00,
2013-07-02 15:30:00,103.1,62.7,29.80,South,185,5.0,8.0,27,0.00,,---,0.00,VWS V14.01,2013-07-02 22:30:00,
2013-07-02 15:35:00,103.3,63.9,29.80,SE,145,2.0,2.0,28,0.00,,---,0.00,VWS V14.01,2013-07-02 22:35:00,
2013-07-02 15:40:00,103.6,63.1,29.79,South,180,4.0,4.0,27,0.00,,---,0.00,VWS V14.01,2013-07-02 22:40:00,
2013-07-02 15:45:00,103.8,63.3,29.79,South,176,5.0,7.0,27,0.00,,---,0.00,VWS V14.01,2013-07-02 22:45:00,
2013-07-02 15:50:00,104.1,64.6,29.79,SE,140,7.0,7.0,28,0.00,,---,0.00,VWS V14.01,2013-07-02 22:50:00,
2013-07-02 15:55:00,104.2,63.6,29.79,South,182,2.0,6.0,27,0.00,,---,0.00,VWS V14.01,2013-07-02 22:55:00,
2013-07-02 16:00:00,104.4,63.8,29.80,East,100,3.0,3.0,27,0.00,,---,0.00,VWS V14.01,2013-07-02 23:00:00,
2013-07-02 16:05:00,104.3,63.7,29.80,South,182,3.0,6.0,27,0.00,,---,0.00,VWS V14.01,2013-07-02 23:05:00,
2013-07-02 16:10:00,104.2,63.6,29.80,South,184,5.0,11.0,27,0.00,,---,0.00,VWS V14.01,2013-07-02 23:10:00,
2013-07-02 16:15:00,104.3,62.6,29.80,South,185,6.0,9.0,26,0.00,,---,0.00,VWS V14.01,2013-07-02 23:15:00,
2013-07-02 16:20:00,104.3,63.7,29.80,West,259,8.0,12.0,27,0.00,,---,0.00,VWS V14.01,2013-07-02 23:20:00,
2013-07-02 16:25:00,104.3,62.6,29.80,SW,219,5.0,5.0,26,0.00,,---,0.00,VWS V14.01,2013-07-02 23:25:00,
2013-07-02 16:29:00,104.0,63.4,29.80,South,190,3.0,9.0,27,0.00,,---,0.00,VWS V14.01,2013-07-02 23:29:00,
2013-07-02 16:34:00,103.7,64.2,29.79,SE,144,0.0,5.0,28,0.00,,---,0.00,VWS V14.01,2013-07-02 23:34:00,
2013-07-02 16:39:00,103.2,63.8,29.79,South,173,3.0,7.0,28,0.00,,---,0.00,VWS V14.01,2013-07-02 23:39:00,
2013-07-02 16:44:00,102.9,63.5,29.79,SSW,206,2.0,2.0,28,0.00,,---,0.00,VWS V14.01,2013-07-02 23:44:00,
2013-07-02 16:49:00,102.5,64.2,29.79,South,190,4.0,6.0,29,0.00,,---,0.00,VWS V14.01,2013-07-02 23:49:00,
2013-07-02 16:54:00,102.1,63.9,29.79,SSE,159,5.0,9.0,29,0.00,,---,0.00,VWS V14.01,2013-07-02 23:54:00,
2013-07-02 16:59:00,101.9,65.6,29.79,South,171,6.0,6.0,31,0.00,,---,0.00,VWS V14.01,2013-07-02 23:59:00,
2013-07-02 17:01:00,101.9,64.7,29.79,SSE,167,0.0,1.0,30,0.00,,---,0.00,VWS V14.01,2013-07-03 00:01:00,
2013-07-02 17:06:00,101.8,64.6,29.79,South,185,2.0,10.0,30,0.00,,---,0.00,VWS V14.01,2013-07-03 00:06:00,
2013-07-02 17:11:00,101.4,65.2,29.80,SSE,157,3.0,9.0,31,0.00,,---,0.00,VWS V14.01,2013-07-03 00:11:00,
2013-07-02 17:16:00,101.1,64.9,29.79,South,179,1.0,6.0,31,0.00,,---,0.00,VWS V14.01,2013-07-03 00:16:00,
2013-07-02 17:21:00,100.7,65.5,29.79,SSW,210,6.0,6.0,32,0.00,,---,0.00,VWS V14.01,2013-07-03 00:21:00,
2013-07-02 17:23:00,100.5,65.3,29.79,SSE,160,6.0,6.0,32,0.00,,---,0.00,VWS V14.01,2013-07-03 00:23:00,
2013-07-02 17:24:00,100.4,65.2,29.79,SSE,166,2.0,6.0,32,0.00,,---,0.00,VWS V14.01,2013-07-03 00:24:00,
2013-07-02 17:28:00,100.1,65.8,29.79,WSW,239,1.0,8.0,33,0.00,,---,0.00,VWS V14.01,2013-07-03 00:28:00,
2013-07-02 17:33:00,99.8,65.6,29.79,South,175,8.0,9.0,33,0.00,,---,0.00,VWS V14.01,2013-07-03 00:33:00,
2013-07-02 17:38:00,99.4,65.2,29.79,South,177,5.0,6.0,33,0.00,,---,0.00,VWS V14.01,2013-07-03 00:38:00,
2013-07-02 17:43:00,99.1,65.0,29.79,SSE,165,5.0,6.0,33,0.00,,---,0.00,VWS V14.01,2013-07-03 00:43:00,
2013-07-02 17:48:00,98.6,65.4,29.79,SE,144,0.0,5.0,34,0.00,,---,0.00,VWS V14.01,2013-07-03 00:48:00,
2013-07-02 17:53:00,98.2,64.2,29.79,SW,216,0.0,7.0,33,0.00,,---,0.00,VWS V14.01,2013-07-03 00:53:00,
2013-07-02 17:58:00,97.9,63.0,29.79,SSE,161,6.0,10.0,32,0.00,,---,0.00,VWS V14.01,2013-07-03 00:58:00,
2013-07-02 18:00:00,97.8,63.0,29.79,SSW,195,0.0,10.0,32,0.00,,---,0.00,VWS V14.01,2013-07-03 01:00:00,
2013-07-02 18:03:00,97.7,62.9,29.79,SE,128,0.0,2.0,32,0.00,,---,0.00,VWS V14.01,2013-07-03 01:03:00,
2013-07-02 18:08:00,97.6,62.8,29.79,SSW,199,2.0,4.0,32,0.00,,---,0.00,VWS V14.01,2013-07-03 01:08:00,
2013-07-02 18:09:00,97.5,63.6,29.79,South,178,10.0,11.0,33,0.00,,---,0.00,VWS V14.01,2013-07-03 01:09:00,
2013-07-02 18:14:00,97.4,63.5,29.79,South,181,2.0,7.0,33,0.00,,---,0.00,VWS V14.01,2013-07-03 01:14:00,
2013-07-02 18:19:00,97.3,63.4,29.79,SW,214,4.0,7.0,33,0.00,,---,0.00,VWS V14.01,2013-07-03 01:19:00,
2013-07-02 18:24:00,97.2,63.3,29.78,South,190,0.0,6.0,33,0.00,,---,0.00,VWS V14.01,2013-07-03 01:24:00,
2013-07-02 18:26:00,97.1,64.1,29.78,South,190,0.0,0.0,34,0.00,,---,0.00,VWS V14.01,2013-07-03 01:26:00,
2013-07-02 18:31:00,97.1,64.1,29.78,SSW,209,9.0,9.0,34,0.00,,---,0.00,VWS V14.01,2013-07-03 01:31:00,
2013-07-02 18:36:00,96.9,63.1,29.78,SSW,193,6.0,11.0,33,0.00,,---,0.00,VWS V14.01,2013-07-03 01:36:00,
2013-07-02 18:41:00,96.8,63.8,29.78,SSW,212,2.0,2.0,34,0.00,,---,0.00,VWS V14.01,2013-07-03 01:41:00,
2013-07-02 18:46:00,96.7,62.0,29.78,South,184,4.0,5.0,32,0.00,,---,0.00,VWS V14.01,2013-07-03 01:46:00,
2013-07-02 18:49:00,96.6,62.8,29.78,South,190,2.0,9.0,33,0.00,,---,0.00,VWS V14.01,2013-07-03 01:49:00,
2013-07-02 18:50:00,96.5,62.7,29.78,SSW,206,6.0,7.0,33,0.00,,---,0.00,VWS V14.01,2013-07-03 01:50:00,
2013-07-02 18:56:00,96.4,61.8,29.78,SSW,196,5.0,9.0,32,0.00,,---,0.00,VWS V14.01,2013-07-03 01:56:00,
2013-07-02 19:01:00,96.2,62.5,29.78,South,181,4.0,9.0,33,0.00,,---,0.00,VWS V14.01,2013-07-03 02:01:00,
2013-07-02 19:06:00,96.1,62.4,29.78,SSE,161,6.0,6.0,33,0.00,,---,0.00,VWS V14.01,2013-07-03 02:06:00,
2013-07-02 19:11:00,96.0,62.3,29.79,South,187,0.0,5.0,33,0.00,,---,0.00,VWS V14.01,2013-07-03 02:11:00,
2013-07-02 19:16:00,95.8,62.1,29.78,SE,136,2.0,4.0,33,0.00,,---,0.00,VWS V14.01,2013-07-03 02:16:00,
2013-07-02 19:21:00,95.6,61.9,29.79,SSE,162,1.0,9.0,33,0.00,,---,0.00,VWS V14.01,2013-07-03 02:21:00,
2013-07-02 19:26:00,95.5,61.8,29.79,SSE,159,0.0,0.0,33,0.00,,---,0.00,VWS V14.01,2013-07-03 02:26:00,
2013-07-02 19:31:00,95.4,61.8,29.79,South,174,0.0,5.0,33,0.00,,---,0.00,VWS V14.01,2013-07-03 02:31:00,
2013-07-02 19:32:00,95.4,61.8,29.79,SE,135,1.0,3.0,33,0.00,,---,0.00,VWS V14.01,2013-07-03 02:32:00,
2013-07-02 19:37:00,95.2,61.6,29.79,SE,137,8.0,10.0,33,0.00,,---,0.00,VWS V14.01,2013-07-03 02:37:00,
2013-07-02 19:42:00,95.0,61.4,29.79,SE,143,0.0,1.0,33,0.00,,---,0.00,VWS V14.01,2013-07-03 02:42:00,
2013-07-02 19:46:00,94.8,62.1,29.80,SE,131,4.0,4.0,34,0.00,,---,0.00,VWS V14.01,2013-07-03 02:46:00,
2013-07-02 19:51:00,94.5,61.0,29.80,ESE,118,2.0,2.0,33,0.00,,---,0.00,VWS V14.01,2013-07-03 02:51:00,
2013-07-02 19:56:00,93.9,60.5,29.80,SSE,153,1.0,3.0,33,0.00,,---,0.00,VWS V14.01,2013-07-03 02:56:00,
2013-07-02 20:01:00,93.5,61.0,29.80,SSE,160,0.0,1.0,34,0.00,,---,0.00,VWS V14.01,2013-07-03 03:01:00,
2013-07-02 20:02:00,93.4,60.9,29.80,SSE,161,0.0,1.0,34,0.00,,---,0.00,VWS V14.01,2013-07-03 03:02:00,
2013-07-02 20:07:00,93.0,60.5,29.80,ESE,109,3.0,10.0,34,0.00,,---,0.00,VWS V14.01,2013-07-03 03:07:00,
2013-07-02 20:12:00,92.3,59.9,29.80,SSE,147,0.0,6.0,34,0.00,,---,0.00,VWS V14.01,2013-07-03 03:12:00,
2013-07-02 20:17:00,91.8,58.6,29.80,South,182,0.0,4.0,33,0.00,,---,0.00,VWS V14.01,2013-07-03 03:17:00,
2013-07-02 20:20:00,91.4,59.1,29.81,South,182,0.0,0.0,34,0.00,,---,0.00,VWS V14.01,2013-07-03 03:20:00,
2013-07-02 20:25:00,91.1,58.8,29.81,South,178,1.0,1.0,34,0.00,,---,0.00,VWS V14.01,2013-07-03 03:25:00,
2013-07-02 20:30:00,90.6,58.4,29.81,SSE,150,0.0,0.0,34,0.00,,---,0.00,VWS V14.01,2013-07-03 03:30:00,
2013-07-02 20:35:00,90.2,58.9,29.81,SE,146,0.0,4.0,35,0.00,,---,0.00,VWS V14.01,2013-07-03 03:35:00,
2013-07-02 20:40:00,89.7,58.4,29.81,SSE,152,6.0,6.0,35,0.00,,---,0.00,VWS V14.01,2013-07-03 03:40:00,
2013-07-02 20:41:00,89.7,58.4,29.81,SSE,160,4.0,9.0,35,0.00,,---,0.00,VWS V14.01,2013-07-03 03:41:00,
2013-07-02 20:46:00,89.2,58.8,29.81,ESE,119,0.0,1.0,36,0.00,,---,0.00,VWS V14.01,2013-07-03 03:46:00,
2013-07-02 20:49:00,88.9,58.5,29.81,SSE,157,4.0,9.0,36,0.00,,---,0.00,VWS V14.01,2013-07-03 03:49:00,
2013-07-02 20:54:00,88.4,58.1,29.81,SSE,155,0.0,0.0,36,0.00,,---,0.00,VWS V14.01,2013-07-03 03:54:00,
2013-07-02 20:59:00,88.0,58.5,29.82,SE,127,0.0,0.0,37,0.00,,---,0.00,VWS V14.01,2013-07-03 03:59:00,
2013-07-02 21:00:00,87.9,57.6,29.82,ESE,119,5.0,6.0,36,0.00,,---,0.00,VWS V14.01,2013-07-03 04:00:00,
2013-07-02 21:01:00,87.9,57.6,29.82,SSE,151,1.0,4.0,36,0.00,,---,0.00,VWS V14.01,2013-07-03 04:01:00,
2013-07-02 21:03:00,87.7,58.2,29.82,SSE,158,0.0,0.0,37,0.00,,---,0.00,VWS V14.01,2013-07-03 04:03:00,
2013-07-02 21:04:00,87.7,58.2,29.82,SE,140,0.0,5.0,37,0.00,,---,0.00,VWS V14.01,2013-07-03 04:04:00,
2013-07-02 21:09:00,87.2,57.8,29.83,SE,135,0.0,3.0,37,0.00,,---,0.00,VWS V14.01,2013-07-03 04:09:00,
2013-07-02 21:14:00,86.9,57.5,29.83,SSE,155,5.0,6.0,37,0.00,,---,0.00,VWS V14.01,2013-07-03 04:14:00,
2013-07-02 21:19:00,86.5,57.2,29.83,SSW,192,7.0,9.0,37,0.00,,---,0.00,VWS V14.01,2013-07-03 04:19:00,
2013-07-02 21:24:00,86.2,56.9,29.83,SE,146,0.0,12.0,37,0.00,,---,0.00,VWS V14.01,2013-07-03 04:24:00,
2013-07-02 21:29:00,86.0,57.5,29.83,SE,145,4.0,7.0,38,0.00,,---,0.00,VWS V14.01,2013-07-03 04:29:00,
2013-07-02 21:31:00,85.9,57.4,29.83,SE,126,0.0,7.0,38,0.00,,---,0.00,VWS V14.01,2013-07-03 04:31:00,
2013-07-02 21:32:00,85.8,57.3,29.83,SE,127,0.0,0.0,38,0.00,,---,0.00,VWS V14.01,2013-07-03 04:32:00,
2013-07-02 21:37:00,85.5,57.0,29.83,SSE,165,5.0,9.0,38,0.00,,---,0.00,VWS V14.01,2013-07-03 04:37:00,
2013-07-02 21:42:00,85.2,56.8,29.83,South,183,3.0,10.0,38,0.00,,---,0.00,VWS V14.01,2013-07-03 04:42:00,
2013-07-02 21:45:00,85.0,56.6,29.83,SSE,150,3.0,7.0,38,0.00,,---,0.00,VWS V14.01,2013-07-03 04:45:00,
2013-07-02 21:46:00,84.9,56.5,29.83,SE,134,2.0,4.0,38,0.00,,---,0.00,VWS V14.01,2013-07-03 04:46:00,
2013-07-02 21:51:00,84.6,56.9,29.82,South,176,0.0,0.0,39,0.00,,---,0.00,VWS V14.01,2013-07-03 04:51:00,
2013-07-02 21:53:00,84.5,56.8,29.82,South,175,0.0,0.0,39,0.00,,---,0.00,VWS V14.01,2013-07-03 04:53:00,
2013-07-02 21:58:00,84.1,57.2,29.82,South,190,0.0,0.0,40,0.00,,---,0.00,VWS V14.01,2013-07-03 04:58:00,
2013-07-02 22:03:00,83.8,56.9,29.82,SSE,164,0.0,2.0,40,0.00,,---,0.00,VWS V14.01,2013-07-03 05:03:00,
2013-07-02 22:07:00,83.7,56.8,29.82,South,182,1.0,1.0,40,0.00,,---,0.00,VWS V14.01,2013-07-03 05:07:00,
2013-07-02 22:12:00,83.5,57.3,29.82,South,176,11.0,11.0,41,0.00,,---,0.00,VWS V14.01,2013-07-03 05:12:00,
2013-07-02 22:17:00,83.2,56.4,29.82,South,169,4.0,5.0,40,0.00,,---,0.00,VWS V14.01,2013-07-03 05:17:00,
2013-07-02 22:19:00,83.1,57.0,29.82,SSE,158,2.0,2.0,41,0.00,,---,0.00,VWS V14.01,2013-07-03 05:19:00,
2013-07-02 22:24:00,82.9,56.8,29.82,SW,222,2.0,9.0,41,0.00,,---,0.00,VWS V14.01,2013-07-03 05:24:00,
2013-07-02 22:29:00,82.4,57.0,29.83,SSE,162,6.0,9.0,42,0.00,,---,0.00,VWS V14.01,2013-07-03 05:29:00,
2013-07-02 22:34:00,81.9,57.2,29.82,South,178,9.0,14.0,43,0.00,,---,0.00,VWS V14.01,2013-07-03 05:34:00,
2013-07-02 22:39:00,81.4,56.8,29.82,SE,124,5.0,10.0,43,0.00,,---,0.00,VWS V14.01,2013-07-03 05:39:00,
2013-07-02 22:44:00,81.1,56.5,29.82,SSE,156,0.0,0.0,43,0.00,,---,0.00,VWS V14.01,2013-07-03 05:44:00,
2013-07-02 22:49:00,80.9,56.3,29.83,SSE,158,1.0,4.0,43,0.00,,---,0.00,VWS V14.01,2013-07-03 05:49:00,
2013-07-02 22:54:00,80.7,57.4,29.83,SE,146,0.0,0.0,45,0.00,,---,0.00,VWS V14.01,2013-07-03 05:54:00,
2013-07-02 22:57:00,80.6,56.1,29.83,SE,141,0.0,3.0,43,0.00,,---,0.00,VWS V14.01,2013-07-03 05:57:00,
2013-07-02 22:58:00,80.6,56.1,29.83,ESE,122,5.0,6.0,43,0.00,,---,0.00,VWS V14.01,2013-07-03 05:58:00,
2013-07-02 23:02:00,80.5,56.0,29.83,SE,135,0.0,0.0,43,0.00,,---,0.00,VWS V14.01,2013-07-03 06:02:00,
2013-07-02 23:07:00,80.4,55.9,29.84,SE,135,0.0,0.0,43,0.00,,---,0.00,VWS V14.01,2013-07-03 06:07:00,
2013-07-02 23:12:00,80.3,55.8,29.84,ESE,123,4.0,10.0,43,0.00,,---,0.00,VWS V14.01,2013-07-03 06:12:00,
2013-07-02 23:13:00,80.3,56.4,29.84,SE,126,0.0,0.0,44,0.00,,---,0.00,VWS V14.01,2013-07-03 06:13:00,
2013-07-02 23:16:00,80.3,56.4,29.84,SE,140,0.0,4.0,44,0.00,,---,0.00,VWS V14.01,2013-07-03 06:16:00,
2013-07-02 23:17:00,80.2,56.3,29.84,ESE,118,0.0,7.0,44,0.00,,---,0.00,VWS V14.01,2013-07-03 06:17:00,
2013-07-02 23:22:00,80.1,56.2,29.84,ESE,121,0.0,0.0,44,0.00,,---,0.00,VWS V14.01,2013-07-03 06:22:00,
2013-07-02 23:24:00,80.1,55.6,29.84,SE,126,0.0,0.0,43,0.00,,---,0.00,VWS V14.01,2013-07-03 06:24:00,
2013-07-02 23:27:00,80.0,55.5,29.83,ESE,123,0.0,0.0,43,0.00,,---,0.00,VWS V14.01,2013-07-03 06:27:00,
2013-07-02 23:32:00,80.0,56.2,29.84,SE,126,0.0,0.0,44,0.00,,---,0.00,VWS V14.01,2013-07-03 06:32:00,
2013-07-02 23:37:00,79.9,56.1,29.84,SE,130,4.0,6.0,44,0.00,,---,0.00,VWS V14.01,2013-07-03 06:37:00,
2013-07-02 23:42:00,79.8,56.0,29.84,ESE,119,0.0,0.0,44,0.00,,---,0.00,VWS V14.01,2013-07-03 06:42:00,
2013-07-02 23:43:00,79.7,55.9,29.84,ESE,119,0.0,1.0,44,0.00,,---,0.00,VWS V14.01,2013-07-03 06:43:00,
2013-07-02 23:48:00,79.6,56.4,29.84,SSE,149,5.0,5.0,45,0.00,,---,0.00,VWS V14.01,2013-07-03 06:48:00,
2013-07-02 23:53:00,79.5,55.7,29.84,ESE,121,0.0,0.0,44,0.00,,---,0.00,VWS V14.01,2013-07-03 06:53:00,
2013-07-02 23:55:00,79.4,56.2,29.84,SE,124,0.0,0.0,45,0.00,,---,0.00,VWS V14.01,2013-07-03 06:55:00,